sensor_id;sensor_type;location;lat;lon;timestamp;pressure;altitude;pressure_sealevel;temperature;humidity
67377;BME280;54261;46.086;6.588;2023-06-14T00:02:40;91990.38;;;17.50;45.00
67377;BME280;54261;46.086;6.588;2023-06-14T00:07:43;91982.75;;;16.87;46.33
67377;BME280;54261;46.086;6.588;2023-06-14T00:12:45;91977.13;;;17.86;45.51
67377;BME280;54261;46.086;6.588;2023-06-14T00:17:47;91979.88;;;17.90;45.26
67377;BME280;54261;46.086;6.588;2023-06-14T00:22:49;91958.41;;;17.67;45.56
67377;BME280;54261;46.086;6.588;2023-06-14T00:27:52;91980.09;;;17.70;45.38
67377;BME280;54261;46.086;6.588;2023-06-14T00:32:54;91982.13;;;18.29;44.31
67377;BME280;54261;46.086;6.588;2023-06-14T00:37:56;91963.28;;;17.12;46.20
67377;BME280;54261;46.086;6.588;2023-06-14T00:42:58;91972.25;;;17.58;45.83
67377;BME280;54261;46.086;6.588;2023-06-14T00:48:00;91967.31;;;16.61;46.93
67377;BME280;54261;46.086;6.588;2023-06-14T00:53:02;91978.75;;;16.47;47.40
67377;BME280;54261;46.086;6.588;2023-06-14T00:58:05;91985.06;;;16.85;47.77
67377;BME280;54261;46.086;6.588;2023-06-14T01:03:09;91969.13;;;17.56;46.67
67377;BME280;54261;46.086;6.588;2023-06-14T01:08:25;91968.19;;;17.82;45.82
67377;BME280;54261;46.086;6.588;2023-06-14T01:18:37;91972.63;;;17.56;45.00
67377;BME280;54261;46.086;6.588;2023-06-14T01:23:39;91986.63;;;18.14;44.52
67377;BME280;54261;46.086;6.588;2023-06-14T01:28:41;91986.50;;;17.96;44.36
67377;BME280;54261;46.086;6.588;2023-06-14T01:33:43;91967.94;;;18.02;43.86
67377;BME280;54261;46.086;6.588;2023-06-14T01:38:46;91978.78;;;18.54;43.31
67377;BME280;54261;46.086;6.588;2023-06-14T01:43:50;91981.13;;;18.67;42.76
67377;BME280;54261;46.086;6.588;2023-06-14T01:48:53;91957.78;;;18.51;42.85
67377;BME280;54261;46.086;6.588;2023-06-14T01:53:55;91974.91;;;18.55;42.53
67377;BME280;54261;46.086;6.588;2023-06-14T01:58:58;91967.13;;;18.54;42.33
67377;BME280;54261;46.086;6.588;2023-06-14T02:04:00;91961.97;;;18.34;42.16
67377;BME280;54261;46.086;6.588;2023-06-14T02:09:02;91962.94;;;18.08;42.77
67377;BME280;54261;46.086;6.588;2023-06-14T02:14:04;91967.28;;;18.16;43.40
67377;BME280;54261;46.086;6.588;2023-06-14T02:19:08;91970.03;;;18.23;43.25
67377;BME280;54261;46.086;6.588;2023-06-14T02:24:10;91975.50;;;18.27;43.14
67377;BME280;54261;46.086;6.588;2023-06-14T02:29:12;91978.72;;;18.47;42.67
67377;BME280;54261;46.086;6.588;2023-06-14T02:34:16;91971.59;;;18.20;42.49
67377;BME280;54261;46.086;6.588;2023-06-14T02:39:21;91976.38;;;17.89;43.14
67377;BME280;54261;46.086;6.588;2023-06-14T02:44:26;91979.53;;;17.95;43.08
67377;BME280;54261;46.086;6.588;2023-06-14T02:49:34;91972.88;;;18.41;43.21
67377;BME280;54261;46.086;6.588;2023-06-14T02:54:36;91981.81;;;18.42;42.56
67377;BME280;54261;46.086;6.588;2023-06-14T02:59:38;91977.47;;;18.33;42.54
67377;BME280;54261;46.086;6.588;2023-06-14T03:04:41;91975.97;;;18.43;43.13
67377;BME280;54261;46.086;6.588;2023-06-14T03:09:48;91984.63;;;18.00;43.29
67377;BME280;54261;46.086;6.588;2023-06-14T03:14:51;91988.81;;;18.50;43.80
67377;BME280;54261;46.086;6.588;2023-06-14T03:19:56;91974.84;;;17.92;43.78
67377;BME280;54261;46.086;6.588;2023-06-14T03:24:59;91998.03;;;18.31;43.30
67377;BME280;54261;46.086;6.588;2023-06-14T03:30:06;91992.63;;;17.86;43.93
67377;BME280;54261;46.086;6.588;2023-06-14T03:35:09;91997.56;;;17.73;44.47
67377;BME280;54261;46.086;6.588;2023-06-14T03:40:21;91992.06;;;18.14;43.30
67377;BME280;54261;46.086;6.588;2023-06-14T03:45:27;91999.44;;;18.14;43.55
67377;BME280;54261;46.086;6.588;2023-06-14T03:50:31;92002.63;;;18.23;42.77
67377;BME280;54261;46.086;6.588;2023-06-14T03:55:34;92001.81;;;17.70;43.20
67377;BME280;54261;46.086;6.588;2023-06-14T04:00:39;92005.94;;;18.02;43.63
67377;BME280;54261;46.086;6.588;2023-06-14T04:05:42;92012.56;;;18.04;43.75
67377;BME280;54261;46.086;6.588;2023-06-14T04:10:44;92000.91;;;18.00;43.66
67377;BME280;54261;46.086;6.588;2023-06-14T04:15:49;92017.47;;;18.37;42.57
67377;BME280;54261;46.086;6.588;2023-06-14T04:20:57;92033.88;;;17.57;43.58
67377;BME280;54261;46.086;6.588;2023-06-14T04:25:59;92013.88;;;18.25;43.09
67377;BME280;54261;46.086;6.588;2023-06-14T04:31:04;92028.44;;;18.55;42.65
67377;BME280;54261;46.086;6.588;2023-06-14T04:36:07;92028.69;;;17.86;43.19
67377;BME280;54261;46.086;6.588;2023-06-14T04:41:10;92041.66;;;18.60;42.91
67377;BME280;54261;46.086;6.588;2023-06-14T04:46:15;92047.09;;;18.56;42.82
67377;BME280;54261;46.086;6.588;2023-06-14T04:51:17;92038.94;;;18.08;42.57
67377;BME280;54261;46.086;6.588;2023-06-14T04:56:24;92029.56;;;17.98;43.09
67377;BME280;54261;46.086;6.588;2023-06-14T05:01:26;92030.81;;;18.08;42.42
67377;BME280;54261;46.086;6.588;2023-06-14T05:06:30;92037.66;;;18.39;42.08
67377;BME280;54261;46.086;6.588;2023-06-14T05:11:32;92042.63;;;18.89;42.08
67377;BME280;54261;46.086;6.588;2023-06-14T05:16:34;92037.69;;;19.21;41.83
67377;BME280;54261;46.086;6.588;2023-06-14T05:21:36;92031.50;;;19.27;41.13
67377;BME280;54261;46.086;6.588;2023-06-14T05:26:44;92048.66;;;19.42;40.82
67377;BME280;54261;46.086;6.588;2023-06-14T05:31:46;92038.53;;;19.36;40.91
67377;BME280;54261;46.086;6.588;2023-06-14T05:36:48;92048.81;;;18.86;41.04
67377;BME280;54261;46.086;6.588;2023-06-14T05:41:49;92049.28;;;18.40;42.37
67377;BME280;54261;46.086;6.588;2023-06-14T05:46:51;92050.72;;;18.86;41.76
67377;BME280;54261;46.086;6.588;2023-06-14T05:51:53;92047.72;;;19.02;41.28
67377;BME280;54261;46.086;6.588;2023-06-14T05:56:55;92038.75;;;18.94;41.01
67377;BME280;54261;46.086;6.588;2023-06-14T06:01:57;92051.50;;;18.23;42.26
67377;BME280;54261;46.086;6.588;2023-06-14T06:06:59;92050.53;;;18.53;42.14
67377;BME280;54261;46.086;6.588;2023-06-14T06:12:01;92058.88;;;18.26;42.46
67377;BME280;54261;46.086;6.588;2023-06-14T06:17:03;92050.59;;;18.12;42.69
67377;BME280;54261;46.086;6.588;2023-06-14T06:22:05;92036.41;;;17.05;45.38
67377;BME280;54261;46.086;6.588;2023-06-14T06:27:08;92052.91;;;17.61;44.90
67377;BME280;54261;46.086;6.588;2023-06-14T06:32:10;92054.59;;;17.42;44.81
67377;BME280;54261;46.086;6.588;2023-06-14T06:37:11;92059.56;;;17.71;44.61
67377;BME280;54261;46.086;6.588;2023-06-14T06:42:13;92063.25;;;17.93;43.25
67377;BME280;54261;46.086;6.588;2023-06-14T06:47:17;92072.47;;;16.28;47.21
67377;BME280;54261;46.086;6.588;2023-06-14T06:52:19;92075.16;;;12.90;57.18
67377;BME280;54261;46.086;6.588;2023-06-14T06:57:21;92069.66;;;15.74;50.32
67377;BME280;54261;46.086;6.588;2023-06-14T07:02:24;92070.00;;;15.73;50.22
67377;BME280;54261;46.086;6.588;2023-06-14T07:07:26;92072.44;;;14.60;53.92
67377;BME280;54261;46.086;6.588;2023-06-14T07:12:28;92080.81;;;15.10;50.23
67377;BME280;54261;46.086;6.588;2023-06-14T07:17:31;92086.69;;;12.00;58.93
67377;BME280;54261;46.086;6.588;2023-06-14T07:22:33;92084.47;;;11.43;57.01
67377;BME280;54261;46.086;6.588;2023-06-14T07:27:34;92083.13;;;12.33;53.32
67377;BME280;54261;46.086;6.588;2023-06-14T07:32:36;92073.88;;;10.92;52.02
67377;BME280;54261;46.086;6.588;2023-06-14T07:37:38;92098.53;;;14.04;49.20
67377;BME280;54261;46.086;6.588;2023-06-14T07:42:40;92091.13;;;15.24;42.67
67377;BME280;54261;46.086;6.588;2023-06-14T07:47:42;92099.97;;;16.30;40.28
67377;BME280;54261;46.086;6.588;2023-06-14T07:52:45;92098.66;;;15.54;40.65
67377;BME280;54261;46.086;6.588;2023-06-14T07:57:46;92106.13;;;16.54;40.13
67377;BME280;54261;46.086;6.588;2023-06-14T08:02:48;92098.56;;;16.67;38.85
67377;BME280;54261;46.086;6.588;2023-06-14T08:07:50;92078.66;;;16.29;38.63
67377;BME280;54261;46.086;6.588;2023-06-14T08:12:52;92102.69;;;15.64;38.95
67377;BME280;54261;46.086;6.588;2023-06-14T08:17:54;92089.66;;;13.71;43.03
67377;BME280;54261;46.086;6.588;2023-06-14T08:22:56;92094.91;;;12.94;47.07
67377;BME280;54261;46.086;6.588;2023-06-14T08:27:58;92096.00;;;13.79;46.32
67377;BME280;54261;46.086;6.588;2023-06-14T08:33:01;92094.63;;;16.11;42.07
67377;BME280;54261;46.086;6.588;2023-06-14T08:38:16;92071.19;;;13.73;44.82
67377;BME280;54261;46.086;6.588;2023-06-14T08:43:18;92100.25;;;14.60;44.64
67377;BME280;54261;46.086;6.588;2023-06-14T08:48:21;92083.13;;;13.43;47.96
67377;BME280;54261;46.086;6.588;2023-06-14T08:53:24;92097.88;;;13.62;48.67
67377;BME280;54261;46.086;6.588;2023-06-14T08:58:28;92088.84;;;11.94;51.57
67377;BME280;54261;46.086;6.588;2023-06-14T09:03:31;92103.63;;;12.00;50.36
67377;BME280;54261;46.086;6.588;2023-06-14T09:08:35;92094.50;;;12.55;51.17
67377;BME280;54261;46.086;6.588;2023-06-14T09:13:37;92100.97;;;13.93;48.78
67377;BME280;54261;46.086;6.588;2023-06-14T09:18:41;92089.72;;;13.02;49.13
67377;BME280;54261;46.086;6.588;2023-06-14T09:23:47;92101.03;;;13.07;48.61
67377;BME280;54261;46.086;6.588;2023-06-14T09:28:50;92101.00;;;12.54;50.41
67377;BME280;54261;46.086;6.588;2023-06-14T09:33:52;92100.78;;;13.85;45.55
67377;BME280;54261;46.086;6.588;2023-06-14T09:43:59;92093.19;;;14.23;45.65
67377;BME280;54261;46.086;6.588;2023-06-14T09:49:10;92106.09;;;14.14;43.91
67377;BME280;54261;46.086;6.588;2023-06-14T09:54:15;92101.06;;;14.80;42.94
67377;BME280;54261;46.086;6.588;2023-06-14T09:59:25;92104.88;;;15.78;41.24
67377;BME280;54261;46.086;6.588;2023-06-14T10:04:31;92108.56;;;15.89;41.81
67377;BME280;54261;46.086;6.588;2023-06-14T10:09:35;92111.25;;;15.46;42.88
67377;BME280;54261;46.086;6.588;2023-06-14T10:14:37;92100.88;;;15.48;42.33
67377;BME280;54261;46.086;6.588;2023-06-14T10:19:55;92099.31;;;15.90;40.50
67377;BME280;54261;46.086;6.588;2023-06-14T10:24:59;92091.38;;;14.79;40.93
67377;BME280;54261;46.086;6.588;2023-06-14T10:30:02;92100.81;;;14.69;43.29
67377;BME280;54261;46.086;6.588;2023-06-14T10:35:06;92099.06;;;15.17;42.68
67377;BME280;54261;46.086;6.588;2023-06-14T10:40:09;92091.53;;;15.06;39.70
67377;BME280;54261;46.086;6.588;2023-06-14T10:45:31;92099.28;;;14.36;40.40
67377;BME280;54261;46.086;6.588;2023-06-14T10:50:32;92097.59;;;15.19;42.15
67377;BME280;54261;46.086;6.588;2023-06-14T10:55:36;92092.69;;;15.88;38.35
67377;BME280;54261;46.086;6.588;2023-06-14T11:00:38;92097.44;;;15.12;40.03
67377;BME280;54261;46.086;6.588;2023-06-14T11:05:54;92085.88;;;16.21;36.61
67377;BME280;54261;46.086;6.588;2023-06-14T11:11:00;92091.41;;;14.99;38.93
67377;BME280;54261;46.086;6.588;2023-06-14T11:16:02;92094.44;;;14.97;39.06
67377;BME280;54261;46.086;6.588;2023-06-14T11:21:04;92086.91;;;15.07;38.20
67377;BME280;54261;46.086;6.588;2023-06-14T11:26:06;92083.78;;;14.85;37.78
67377;BME280;54261;46.086;6.588;2023-06-14T11:31:09;92096.06;;;16.04;35.89
67377;BME280;54261;46.086;6.588;2023-06-14T11:36:11;92084.59;;;16.11;33.66
67377;BME280;54261;46.086;6.588;2023-06-14T11:41:13;92076.59;;;15.52;35.45
67377;BME280;54261;46.086;6.588;2023-06-14T11:46:15;92065.78;;;15.52;35.38
67377;BME280;54261;46.086;6.588;2023-06-14T11:51:19;92076.84;;;15.43;35.11
67377;BME280;54261;46.086;6.588;2023-06-14T11:56:21;92070.97;;;15.41;35.42
67377;BME280;54261;46.086;6.588;2023-06-14T12:01:23;92079.94;;;16.62;32.82
67377;BME280;54261;46.086;6.588;2023-06-14T12:06:26;92083.78;;;17.18;33.54
67377;BME280;54261;46.086;6.588;2023-06-14T12:11:35;92070.38;;;15.94;34.96
67377;BME280;54261;46.086;6.588;2023-06-14T12:16:39;92079.13;;;16.61;33.24
67377;BME280;54261;46.086;6.588;2023-06-14T12:21:45;92071.22;;;16.49;30.32
67377;BME280;54261;46.086;6.588;2023-06-14T12:26:51;92070.19;;;16.57;33.93
67377;BME280;54261;46.086;6.588;2023-06-14T12:31:54;92083.50;;;16.97;29.75
67377;BME280;54261;46.086;6.588;2023-06-14T12:36:58;92061.50;;;16.71;30.88
67377;BME280;54261;46.086;6.588;2023-06-14T12:42:00;92059.06;;;17.24;30.94
67377;BME280;54261;46.086;6.588;2023-06-14T12:47:02;92050.47;;;17.18;29.54
67377;BME280;54261;46.086;6.588;2023-06-14T12:52:04;92074.63;;;17.30;32.08
67377;BME280;54261;46.086;6.588;2023-06-14T12:57:07;92069.78;;;18.30;25.13
67377;BME280;54261;46.086;6.588;2023-06-14T13:02:17;92063.56;;;17.12;29.76
67377;BME280;54261;46.086;6.588;2023-06-14T13:07:19;92066.50;;;18.10;29.69
67377;BME280;54261;46.086;6.588;2023-06-14T13:12:22;92066.78;;;19.13;29.18
67377;BME280;54261;46.086;6.588;2023-06-14T13:17:23;92068.13;;;17.73;27.97
67377;BME280;54261;46.086;6.588;2023-06-14T13:22:25;92058.88;;;18.23;26.80
67377;BME280;54261;46.086;6.588;2023-06-14T13:27:27;92064.38;;;18.89;26.73
67377;BME280;54261;46.086;6.588;2023-06-14T13:32:29;92060.19;;;19.14;24.88
67377;BME280;54261;46.086;6.588;2023-06-14T13:37:31;92064.84;;;19.10;25.64
67377;BME280;54261;46.086;6.588;2023-06-14T13:42:33;92078.47;;;18.01;24.40
67377;BME280;54261;46.086;6.588;2023-06-14T13:47:35;92075.25;;;20.47;22.43
67377;BME280;54261;46.086;6.588;2023-06-14T13:52:37;92070.28;;;19.10;23.38
67377;BME280;54261;46.086;6.588;2023-06-14T13:57:39;92086.66;;;18.57;25.67
67377;BME280;54261;46.086;6.588;2023-06-14T14:02:41;92075.28;;;17.92;23.46
67377;BME280;54261;46.086;6.588;2023-06-14T14:07:44;92071.16;;;19.36;23.37
67377;BME280;54261;46.086;6.588;2023-06-14T14:12:46;92073.03;;;21.60;21.95
67377;BME280;54261;46.086;6.588;2023-06-14T14:17:50;92071.06;;;21.64;21.20
67377;BME280;54261;46.086;6.588;2023-06-14T14:22:53;92077.38;;;23.09;20.57
67377;BME280;54261;46.086;6.588;2023-06-14T14:27:54;92071.69;;;22.47;20.65
67377;BME280;54261;46.086;6.588;2023-06-14T14:32:57;92067.53;;;21.67;18.82
67377;BME280;54261;46.086;6.588;2023-06-14T14:37:59;92069.19;;;22.71;17.59
67377;BME280;54261;46.086;6.588;2023-06-14T14:43:01;92073.25;;;20.95;19.43
67377;BME280;54261;46.086;6.588;2023-06-14T14:48:03;92069.69;;;23.97;18.41
67377;BME280;54261;46.086;6.588;2023-06-14T14:53:05;92048.50;;;23.70;18.24
67377;BME280;54261;46.086;6.588;2023-06-14T14:58:08;92067.88;;;21.73;18.11
67377;BME280;54261;46.086;6.588;2023-06-14T15:03:10;92069.94;;;24.82;17.96
67377;BME280;54261;46.086;6.588;2023-06-14T15:08:11;92071.72;;;22.43;15.88
67377;BME280;54261;46.086;6.588;2023-06-14T15:13:14;92086.53;;;24.98;16.15
67377;BME280;54261;46.086;6.588;2023-06-14T15:18:16;92074.59;;;22.74;16.31
67377;BME280;54261;46.086;6.588;2023-06-14T15:23:18;92071.53;;;24.04;15.71
67377;BME280;54261;46.086;6.588;2023-06-14T15:28:21;92068.38;;;25.04;15.83
67377;BME280;54261;46.086;6.588;2023-06-14T15:33:25;92062.81;;;24.40;15.73
67377;BME280;54261;46.086;6.588;2023-06-14T15:38:26;92074.78;;;24.74;14.50
67377;BME280;54261;46.086;6.588;2023-06-14T15:43:28;92069.75;;;25.16;14.52
67377;BME280;54261;46.086;6.588;2023-06-14T15:48:30;92050.81;;;22.67;14.74
67377;BME280;54261;46.086;6.588;2023-06-14T15:53:32;92072.69;;;24.82;13.79
67377;BME280;54261;46.086;6.588;2023-06-14T15:58:36;92060.47;;;23.84;14.55
67377;BME280;54261;46.086;6.588;2023-06-14T16:03:38;92077.38;;;25.86;14.27
67377;BME280;54261;46.086;6.588;2023-06-14T16:08:40;92066.78;;;24.35;13.43
67377;BME280;54261;46.086;6.588;2023-06-14T16:13:42;92068.06;;;24.55;14.64
67377;BME280;54261;46.086;6.588;2023-06-14T16:18:44;92073.41;;;24.38;12.33
67377;BME280;54261;46.086;6.588;2023-06-14T16:23:46;92066.09;;;22.61;15.29
67377;BME280;54261;46.086;6.588;2023-06-14T16:28:48;92069.75;;;22.89;15.00
67377;BME280;54261;46.086;6.588;2023-06-14T16:33:50;92067.31;;;24.98;13.28
67377;BME280;54261;46.086;6.588;2023-06-14T16:38:57;92083.16;;;24.90;12.69
67377;BME280;54261;46.086;6.588;2023-06-14T16:44:00;92084.78;;;26.92;13.08
67377;BME280;54261;46.086;6.588;2023-06-14T16:49:05;92100.84;;;26.44;13.62
67377;BME280;54261;46.086;6.588;2023-06-14T16:54:07;92100.75;;;25.33;12.28
67377;BME280;54261;46.086;6.588;2023-06-14T16:59:09;92086.38;;;25.05;13.73
67377;BME280;54261;46.086;6.588;2023-06-14T17:04:11;92107.03;;;25.14;13.16
67377;BME280;54261;46.086;6.588;2023-06-14T17:09:13;92107.75;;;26.85;13.33
67377;BME280;54261;46.086;6.588;2023-06-14T17:14:15;92100.41;;;26.29;12.11
67377;BME280;54261;46.086;6.588;2023-06-14T17:19:17;92062.22;;;27.14;11.99
67377;BME280;54261;46.086;6.588;2023-06-14T17:24:19;92115.22;;;23.52;14.74
67377;BME280;54261;46.086;6.588;2023-06-14T17:29:27;92114.44;;;24.69;14.69
67377;BME280;54261;46.086;6.588;2023-06-14T17:34:29;92111.63;;;22.33;16.13
67377;BME280;54261;46.086;6.588;2023-06-14T17:39:31;92135.16;;;25.18;14.40
67377;BME280;54261;46.086;6.588;2023-06-14T17:44:33;92141.34;;;23.57;15.06
67377;BME280;54261;46.086;6.588;2023-06-14T17:49:35;92126.91;;;23.91;15.87
67377;BME280;54261;46.086;6.588;2023-06-14T17:54:36;92146.41;;;25.03;14.00
67377;BME280;54261;46.086;6.588;2023-06-14T17:59:38;92155.81;;;25.02;15.15
67377;BME280;54261;46.086;6.588;2023-06-14T18:04:40;92167.16;;;26.29;14.72
67377;BME280;54261;46.086;6.588;2023-06-14T18:09:43;92165.34;;;27.85;17.17
67377;BME280;54261;46.086;6.588;2023-06-14T18:14:45;92168.03;;;28.57;16.29
67377;BME280;54261;46.086;6.588;2023-06-14T18:19:48;92189.69;;;28.84;15.32
67377;BME280;54261;46.086;6.588;2023-06-14T18:24:50;92187.16;;;28.64;15.76
67377;BME280;54261;46.086;6.588;2023-06-14T18:29:51;92186.66;;;28.40;15.12
67377;BME280;54261;46.086;6.588;2023-06-14T18:34:54;92200.50;;;27.81;16.02
67377;BME280;54261;46.086;6.588;2023-06-14T18:39:55;92205.53;;;27.07;15.45
67377;BME280;54261;46.086;6.588;2023-06-14T18:44:58;92194.91;;;23.97;16.29
67377;BME280;54261;46.086;6.588;2023-06-14T18:50:00;92200.88;;;22.54;17.76
67377;BME280;54261;46.086;6.588;2023-06-14T18:55:02;92205.69;;;22.92;17.25
67377;BME280;54261;46.086;6.588;2023-06-14T19:00:07;92203.78;;;22.89;17.68
67377;BME280;54261;46.086;6.588;2023-06-14T19:05:09;92214.22;;;21.49;17.18
67377;BME280;54261;46.086;6.588;2023-06-14T19:10:11;92209.56;;;20.91;18.31
67377;BME280;54261;46.086;6.588;2023-06-14T19:15:13;92224.81;;;22.36;17.81
67377;BME280;54261;46.086;6.588;2023-06-14T19:20:16;92224.19;;;23.27;15.96
67377;BME280;54261;46.086;6.588;2023-06-14T19:25:18;92228.56;;;22.64;16.85
67377;BME280;54261;46.086;6.588;2023-06-14T19:30:21;92240.75;;;23.05;16.85
67377;BME280;54261;46.086;6.588;2023-06-14T19:35:23;92246.88;;;23.23;16.34
67377;BME280;54261;46.086;6.588;2023-06-14T19:40:25;92254.34;;;22.59;17.38
67377;BME280;54261;46.086;6.588;2023-06-14T19:45:27;92253.53;;;22.62;18.00
67377;BME280;54261;46.086;6.588;2023-06-14T19:50:29;92268.25;;;20.30;22.18
67377;BME280;54261;46.086;6.588;2023-06-14T19:55:31;92275.66;;;20.30;22.49
67377;BME280;54261;46.086;6.588;2023-06-14T20:00:32;92275.44;;;19.16;24.39
67377;BME280;54261;46.086;6.588;2023-06-14T20:05:34;92278.97;;;19.87;23.81
67377;BME280;54261;46.086;6.588;2023-06-14T20:10:37;92284.00;;;19.81;24.02
67377;BME280;54261;46.086;6.588;2023-06-14T20:15:39;92290.66;;;19.28;23.88
67377;BME280;54261;46.086;6.588;2023-06-14T20:20:41;92298.47;;;18.88;24.66
67377;BME280;54261;46.086;6.588;2023-06-14T20:25:44;92307.56;;;18.27;24.71
67377;BME280;54261;46.086;6.588;2023-06-14T20:30:46;92289.06;;;17.21;26.35
67377;BME280;54261;46.086;6.588;2023-06-14T20:35:57;92253.66;;;17.38;24.85
67377;BME280;54261;46.086;6.588;2023-06-14T20:40:59;92323.28;;;17.84;24.13
67377;BME280;54261;46.086;6.588;2023-06-14T20:46:02;92316.72;;;17.58;24.67
67377;BME280;54261;46.086;6.588;2023-06-14T20:51:04;92301.38;;;17.69;23.46
67377;BME280;54261;46.086;6.588;2023-06-14T20:56:09;92306.47;;;16.74;26.75
67377;BME280;54261;46.086;6.588;2023-06-14T21:01:12;92322.47;;;16.79;27.35
67377;BME280;54261;46.086;6.588;2023-06-14T21:06:17;92319.47;;;15.66;29.54
67377;BME280;54261;46.086;6.588;2023-06-14T21:11:20;92315.00;;;16.52;26.76
67377;BME280;54261;46.086;6.588;2023-06-14T21:16:22;92325.38;;;16.27;26.93
67377;BME280;54261;46.086;6.588;2023-06-14T21:21:25;92325.44;;;16.74;27.55
67377;BME280;54261;46.086;6.588;2023-06-14T21:26:27;92332.44;;;16.12;26.38
67377;BME280;54261;46.086;6.588;2023-06-14T21:31:29;92336.31;;;15.95;26.95
67377;BME280;54261;46.086;6.588;2023-06-14T21:36:32;92341.16;;;15.86;26.99
67377;BME280;54261;46.086;6.588;2023-06-14T21:41:37;92345.16;;;15.40;28.85
67377;BME280;54261;46.086;6.588;2023-06-14T21:46:43;92312.56;;;15.49;28.18
67377;BME280;54261;46.086;6.588;2023-06-14T21:51:45;92340.47;;;15.37;27.14
67377;BME280;54261;46.086;6.588;2023-06-14T21:56:47;92342.53;;;14.79;28.73
67377;BME280;54261;46.086;6.588;2023-06-14T22:01:50;92348.16;;;15.71;26.51
67377;BME280;54261;46.086;6.588;2023-06-14T22:06:52;92353.47;;;15.15;28.67
67377;BME280;54261;46.086;6.588;2023-06-14T22:11:57;92354.31;;;15.51;27.59
67377;BME280;54261;46.086;6.588;2023-06-14T22:17:02;92344.84;;;14.93;28.57
67377;BME280;54261;46.086;6.588;2023-06-14T22:22:05;92366.13;;;15.43;27.79
67377;BME280;54261;46.086;6.588;2023-06-14T22:27:07;92362.28;;;14.96;27.97
67377;BME280;54261;46.086;6.588;2023-06-14T22:32:17;92358.88;;;15.47;27.51
67377;BME280;54261;46.086;6.588;2023-06-14T22:37:19;92348.72;;;15.60;27.25
67377;BME280;54261;46.086;6.588;2023-06-14T22:42:22;92381.53;;;15.59;27.77
67377;BME280;54261;46.086;6.588;2023-06-14T22:47:25;92389.38;;;14.26;29.42
67377;BME280;54261;46.086;6.588;2023-06-14T22:52:29;92394.88;;;14.18;29.90
67377;BME280;54261;46.086;6.588;2023-06-14T22:57:31;92381.00;;;15.05;29.32
67377;BME280;54261;46.086;6.588;2023-06-14T23:02:40;92381.84;;;15.73;28.89
67377;BME280;54261;46.086;6.588;2023-06-14T23:07:42;92382.66;;;15.58;29.22
67377;BME280;54261;46.086;6.588;2023-06-14T23:12:48;92391.50;;;14.62;30.20
67377;BME280;54261;46.086;6.588;2023-06-14T23:17:50;92391.94;;;13.57;32.34
67377;BME280;54261;46.086;6.588;2023-06-14T23:22:54;92395.53;;;13.11;32.30
67377;BME280;54261;46.086;6.588;2023-06-14T23:27:56;92385.41;;;13.83;31.60
67377;BME280;54261;46.086;6.588;2023-06-14T23:32:59;92390.47;;;13.84;30.91
67377;BME280;54261;46.086;6.588;2023-06-14T23:38:04;92410.44;;;14.78;29.87
67377;BME280;54261;46.086;6.588;2023-06-14T23:43:07;92405.34;;;13.53;30.96
67377;BME280;54261;46.086;6.588;2023-06-14T23:48:09;92392.09;;;14.42;30.75
67377;BME280;54261;46.086;6.588;2023-06-14T23:53:11;92396.41;;;14.31;30.81
67377;BME280;54261;46.086;6.588;2023-06-14T23:58:15;92389.47;;;13.64;32.16
